Time;durP1;ratioP1;P1;durP2;ratioP2;P2;SDS_P1;SDS_P2;PMS_P1;PMS_P2;Temp;Humidity;BMP_temperature;BMP_pressure;BME280_temperature;BME280_humidity;BME280_pressure;Samples;Min_cycle;Max_cycle;Signal;HPM_P1;HPM_P2
2022/06/09 00:00:19;;;;;;;0.90;0.43;;;;;;;;;;10435078;28;20456;-76
2022/06/09 00:05:24;;;;;;;3.83;1.60;;;;;;;;;;10449940;28;20041;-76
2022/06/09 00:10:30;;;;;;;3.55;1.33;;;;;;;;;;10435808;28;20528;-77
2022/06/09 00:15:33;;;;;;;1.27;0.68;;;;;;;;;;10452331;28;20455;-77
2022/06/09 00:20:37;;;;;;;1.90;1.10;;;;;;;;;;10434478;28;20420;-73
2022/06/09 00:25:40;;;;;;;3.33;1.52;;;;;;;;;;10456267;28;20122;-76
2022/06/09 00:30:43;;;;;;;4.27;1.50;;;;;;;;;;10460598;28;20377;-76
2022/06/09 00:35:47;;;;;;;7.05;2.10;;;;;;;;;;10442451;28;20115;-76
2022/06/09 00:40:51;;;;;;;1.95;1.00;;;;;;;;;;10435435;28;20049;-75
2022/06/09 00:45:59;;;;;;;2.33;1.13;;;;;;;;;;10458479;28;20110;-76
2022/06/09 00:51:12;;;;;;;5.65;2.30;;;;;;;;;;10453993;28;20083;-75
2022/06/09 00:56:15;;;;;;;5.13;2.15;;;;;;;;;;10437918;28;20052;-75
2022/06/09 01:01:18;;;;;;;3.08;1.42;;;;;;;;;;10452356;28;20051;-77
2022/06/09 01:06:25;;;;;;;1.63;1.00;;;;;;;;;;10451406;28;20048;-77
2022/06/09 01:11:27;;;;;;;3.47;1.35;;;;;;;;;;10454981;28;20115;-76
2022/06/09 01:16:42;;;;;;;1.92;1.48;;;;;;;;;;10459372;28;20048;-73
2022/06/09 01:22:04;;;;;;;2.42;1.45;;;;;;;;;;10438590;28;20036;-74
2022/06/09 01:27:16;;;;;;;3.90;2.30;;;;;;;;;;10438805;28;20220;-76
2022/06/09 01:32:23;;;;;;;4.78;2.08;;;;;;;;;;10433387;28;20033;-75
2022/06/09 01:37:38;;;;;;;4.40;2.05;;;;;;;;;;10429641;28;20041;-73
2022/06/09 01:42:42;;;;;;;4.10;2.13;;;;;;;;;;10440567;28;20090;-77
2022/06/09 01:47:44;;;;;;;;;;;;;;;;;;10439203;28;20071;-77
2022/06/09 01:52:50;;;;;;;3.80;2.03;;;;;;;;;;10437990;28;20001;-75
2022/06/09 01:57:57;;;;;;;6.88;2.38;;;;;;;;;;10456019;28;20522;-76
2022/06/09 02:03:03;;;;;;;3.95;1.75;;;;;;;;;;10417656;28;20028;-77
2022/06/09 02:08:10;;;;;;;5.00;2.80;;;;;;;;;;10451614;28;20044;-76
2022/06/09 02:13:15;;;;;;;4.88;2.20;;;;;;;;;;10443133;28;20500;-76
2022/06/09 02:18:19;;;;;;;3.55;2.00;;;;;;;;;;10433278;28;20085;-76
2022/06/09 02:23:21;;;;;;;;;;;;;;;;;;10451537;28;20040;-74
2022/06/09 02:28:25;;;;;;;2.45;1.40;;;;;;;;;;10450137;28;20138;-76
2022/06/09 02:33:28;;;;;;;3.78;2.10;;;;;;;;;;10448215;28;20088;-75
2022/06/09 02:38:31;;;;;;;3.53;1.80;;;;;;;;;;10441650;28;20072;-75
2022/06/09 02:43:36;;;;;;;3.78;1.90;;;;;;;;;;10448826;28;20052;-75
2022/06/09 02:48:40;;;;;;;6.15;2.40;;;;;;;;;;10440363;28;20412;-74
2022/06/09 02:53:43;;;;;;;5.85;1.88;;;;;;;;;;10452110;28;20440;-77
2022/06/09 02:58:48;;;;;;;3.85;1.27;;;;;;;;;;10446320;28;20036;-76
2022/06/09 03:03:50;;;;;;;4.40;2.03;;;;;;;;;;10431212;28;20060;-76
2022/06/09 03:08:54;;;;;;;9.13;2.20;;;;;;;;;;10442940;28;20032;-76
2022/06/09 03:13:59;;;;;;;4.22;2.17;;;;;;;;;;10421489;28;21642;-76
2022/06/09 03:19:01;;;;;;;3.20;2.03;;;;;;;;;;10450693;28;20374;-77
2022/06/09 03:24:05;;;;;;;3.23;1.97;;;;;;;;;;10446334;28;20466;-75
2022/06/09 03:29:10;;;;;;;3.95;2.15;;;;;;;;;;10419240;28;20156;-75
2022/06/09 03:34:13;;;;;;;5.97;2.25;;;;;;;;;;10439761;28;20493;-76
2022/06/09 03:39:16;;;;;;;4.45;2.10;;;;;;;;;;10441730;28;20383;-76
2022/06/09 03:44:20;;;;;;;3.73;2.23;;;;;;;;;;10418292;28;20048;-76
2022/06/09 03:49:23;;;;;;;7.28;2.55;;;;;;;;;;10439216;28;20041;-75
2022/06/09 03:54:26;;;;;;;3.70;2.20;;;;;;;;;;10422731;28;20162;-78
2022/06/09 03:59:30;;;;;;;7.00;2.83;;;;;;;;;;10429590;28;20044;-76
2022/06/09 04:04:33;;;;;;;3.42;2.15;;;;;;;;;;10437874;28;20525;-77
2022/06/09 04:09:36;;;;;;;8.25;2.50;;;;;;;;;;10419145;28;20131;-76
2022/06/09 04:14:42;;;;;;;6.03;2.50;;;;;;;;;;10413141;28;20509;-77
2022/06/09 04:20:05;;;;;;;3.05;2.00;;;;;;;;;;10437547;28;20049;-74
2022/06/09 04:25:08;;;;;;;4.00;2.25;;;;;;;;;;10430291;28;20402;-76
2022/06/09 04:30:13;;;;;;;4.07;1.90;;;;;;;;;;10432620;28;20068;-76
2022/06/09 04:35:16;;;;;;;5.05;2.13;;;;;;;;;;10418226;28;20041;-77
2022/06/09 04:40:19;;;;;;;4.93;2.10;;;;;;;;;;10428529;28;20145;-77
2022/06/09 04:45:23;;;;;;;1.75;1.38;;;;;;;;;;10439549;28;20041;-77
2022/06/09 04:50:26;;;;;;;3.22;1.70;;;;;;;;;;10419777;28;20044;-76
2022/06/09 04:55:29;;;;;;;3.03;1.92;;;;;;;;;;10420263;28;20049;-78
2022/06/09 05:00:34;;;;;;;3.20;1.20;;;;;;;;;;10435201;28;20429;-76
2022/06/09 05:05:37;;;;;;;3.05;1.80;;;;;;;;;;10431647;28;20409;-77
2022/06/09 05:10:41;;;;;;;3.85;2.20;;;;;;;;;;10440769;28;20094;-78
2022/06/09 05:15:49;;;;;;;4.38;2.13;;;;;;;;;;10435800;28;20037;-76
2022/06/09 05:20:52;;;;;;;5.93;1.90;;;;;;;;;;10433116;28;20040;-75
2022/06/09 05:25:57;;;;;;;3.35;1.90;;;;;;;;;;10434328;28;20077;-77
2022/06/09 05:31:01;;;;;;;3.03;1.85;;;;;;;;;;10417368;28;20064;-79
2022/06/09 05:36:05;;;;;;;7.38;2.55;;;;;;;;;;10429141;28;20041;-77
2022/06/09 05:46:31;;;;;;;8.90;4.20;;;;;;;;;;10417649;28;20129;-76
2022/06/09 05:51:34;;;;;;;4.57;2.30;;;;;;;;;;10435200;28;20044;-76
2022/06/09 05:56:38;;;;;;;10.25;2.00;;;;;;;;;;10419879;28;20033;-78
2022/06/09 06:01:42;;;;;;;2.15;1.52;;;;;;;;;;10435538;28;20170;-77
2022/06/09 06:06:45;;;;;;;3.15;1.80;;;;;;;;;;10428632;28;20067;-77
2022/06/09 06:11:48;;;;;;;1.42;1.08;;;;;;;;;;10433711;28;20421;-77
2022/06/09 06:16:52;;;;;;;2.53;1.20;;;;;;;;;;10436686;28;20128;-76
2022/06/09 06:21:55;;;;;;;2.80;1.60;;;;;;;;;;10433966;28;20041;-76
2022/06/09 06:26:58;;;;;;;2.43;1.30;;;;;;;;;;10422802;28;20073;-77
2022/06/09 06:32:02;;;;;;;1.48;1.23;;;;;;;;;;10413066;28;20094;-77
2022/06/09 06:37:05;;;;;;;4.13;1.60;;;;;;;;;;10419520;28;20416;-76
2022/06/09 06:42:08;;;;;;;5.17;1.83;;;;;;;;;;10411240;28;20079;-75
2022/06/09 06:47:12;;;;;;;3.00;1.40;;;;;;;;;;10419995;28;20091;-76
2022/06/09 06:52:15;;;;;;;1.40;1.10;;;;;;;;;;10432813;28;20549;-78
2022/06/09 06:57:19;;;;;;;2.05;0.98;;;;;;;;;;10432143;28;20048;-74
2022/06/09 07:02:23;;;;;;;1.38;0.90;;;;;;;;;;10417466;28;20037;-77
2022/06/09 07:07:46;;;;;;;;;;;;;;;;;;10404105;28;20398;-76
2022/06/09 07:12:48;;;;;;;0.80;0.80;;;;;;;;;;10424947;28;20003;-74
2022/06/09 07:17:53;;;;;;;1.23;0.90;;;;;;;;;;10409931;28;20049;-77
2022/06/09 07:22:56;;;;;;;1.15;1.08;;;;;;;;;;10407780;28;20112;-77
2022/06/09 07:27:59;;;;;;;1.75;1.00;;;;;;;;;;10418359;28;20048;-77
2022/06/09 07:33:03;;;;;;;1.40;1.00;;;;;;;;;;10407198;28;20107;-77
2022/06/09 07:38:08;;;;;;;1.70;1.17;;;;;;;;;;10401396;28;20578;-77
2022/06/09 07:43:12;;;;;;;4.60;1.10;;;;;;;;;;10421012;28;20040;-77
2022/06/09 07:48:16;;;;;;;2.95;1.20;;;;;;;;;;10425896;28;20040;-78
2022/06/09 07:53:38;;;;;;;1.63;1.10;;;;;;;;;;10417610;28;20033;-76
2022/06/09 07:58:42;;;;;;;1.55;1.08;;;;;;;;;;10430958;28;20091;-78
2022/06/09 08:03:46;;;;;;;1.58;1.10;;;;;;;;;;10428319;28;20041;-77
2022/06/09 08:08:49;;;;;;;4.60;1.40;;;;;;;;;;10414511;28;20175;-77
2022/06/09 08:13:52;;;;;;;3.57;2.00;;;;;;;;;;10434049;28;20045;-77
2022/06/09 08:18:57;;;;;;;3.92;2.03;;;;;;;;;;10398862;28;20036;-78
2022/06/09 08:24:01;;;;;;;6.45;1.92;;;;;;;;;;10414422;28;20311;-75
2022/06/09 08:29:05;;;;;;;2.03;1.63;;;;;;;;;;10422514;28;21025;-77
2022/06/09 08:34:09;;;;;;;3.90;1.90;;;;;;;;;;10410887;28;20045;-75
2022/06/09 08:39:12;;;;;;;3.92;1.80;;;;;;;;;;10435858;28;20029;-78
2022/06/09 08:44:16;;;;;;;2.50;1.90;;;;;;;;;;10434990;28;20033;-76
2022/06/09 08:49:28;;;;;;;3.95;1.70;;;;;;;;;;10429051;28;20068;-77
2022/06/09 08:54:34;;;;;;;3.95;1.90;;;;;;;;;;10440781;28;20051;-78
2022/06/09 08:59:38;;;;;;;4.57;1.80;;;;;;;;;;10435473;28;20501;-78
2022/06/09 09:04:45;;;;;;;5.13;1.52;;;;;;;;;;10410128;28;20108;-77
2022/06/09 09:09:48;;;;;;;4.38;1.83;;;;;;;;;;10414095;28;20474;-78
2022/06/09 09:14:53;;;;;;;3.33;1.77;;;;;;;;;;10427913;28;20092;-77
2022/06/09 09:20:01;;;;;;;2.03;1.50;;;;;;;;;;10418935;28;20656;-78
2022/06/09 09:25:19;;;;;;;3.45;1.67;;;;;;;;;;10417030;28;20124;-76
2022/06/09 09:30:25;;;;;;;4.30;2.00;;;;;;;;;;10439943;28;20397;-76
2022/06/09 09:35:32;;;;;;;3.70;1.67;;;;;;;;;;10417716;28;20374;-77
2022/06/09 09:40:36;;;;;;;5.22;1.75;;;;;;;;;;10418312;28;20118;-77
2022/06/09 09:45:41;;;;;;;3.08;1.98;;;;;;;;;;10444255;28;20128;-77
2022/06/09 09:50:50;;;;;;;5.57;2.60;;;;;;;;;;10440268;28;20031;-76
2022/06/09 09:55:55;;;;;;;2.83;1.58;;;;;;;;;;10439395;28;20094;-77
2022/06/09 10:00:59;;;;;;;7.10;1.90;;;;;;;;;;10402261;28;20102;-78
2022/06/09 10:17:31;;;;;;;2.45;1.00;;;;;;;;;;10434902;28;20032;-75
2022/06/09 10:23:01;;;;;;;3.67;1.40;;;;;;;;;;10425199;28;20145;-76
2022/06/09 10:28:08;;;;;;;2.53;1.13;;;;;;;;;;10434084;28;20386;-78
2022/06/09 10:33:18;;;;;;;5.88;1.95;;;;;;;;;;10433987;28;20041;-77
2022/06/09 10:38:26;;;;;;;5.82;2.60;;;;;;;;;;10428235;28;20129;-77
2022/06/09 10:43:33;;;;;;;3.00;1.98;;;;;;;;;;10423050;28;20041;-76
2022/06/09 10:59:44;;;;;;;4.95;1.85;;;;;;;;;;10316497;28;20092;-77
2022/06/09 11:04:47;;;;;;;4.75;2.00;;;;;;;;;;10389211;28;20087;-78
2022/06/09 11:09:57;;;;;;;5.22;2.08;;;;;;;;;;10408242;28;20066;-78
2022/06/09 11:15:03;;;;;;;8.40;3.00;;;;;;;;;;10391505;28;20102;-79
2022/06/09 11:20:12;;;;;;;5.93;1.50;;;;;;;;;;10411801;28;20041;-79
2022/06/09 11:25:23;;;;;;;4.40;1.83;;;;;;;;;;10398868;28;20107;-74
2022/06/09 11:30:35;;;;;;;7.80;2.28;;;;;;;;;;10418302;28;20600;-77
2022/06/09 11:35:41;;;;;;;5.97;1.98;;;;;;;;;;10414642;28;20064;-77
2022/06/09 11:40:48;;;;;;;4.22;1.92;;;;;;;;;;10419959;28;20041;-77
2022/06/09 11:45:53;;;;;;;3.33;1.60;;;;;;;;;;10407933;28;20462;-78
2022/06/09 11:50:57;;;;;;;2.80;1.48;;;;;;;;;;10403919;28;20132;-78
2022/06/09 11:56:17;;;;;;;3.72;1.40;;;;;;;;;;10420102;28;20060;-77
2022/06/09 12:01:31;;;;;;;2.83;1.33;;;;;;;;;;10410176;28;20137;-78
2022/06/09 12:06:39;;;;;;;2.92;1.20;;;;;;;;;;10418440;28;20102;-77
2022/06/09 12:12:00;;;;;;;5.47;1.67;;;;;;;;;;10427906;28;20109;-77
2022/06/09 12:17:08;;;;;;;0.95;0.80;;;;;;;;;;10429276;28;20041;-79
2022/06/09 12:22:30;;;;;;;2.90;1.17;;;;;;;;;;10424793;28;20046;-79
2022/06/09 12:27:44;;;;;;;3.13;1.05;;;;;;;;;;10420099;28;20045;-78
2022/06/09 12:32:50;;;;;;;0.77;0.70;;;;;;;;;;10433175;28;20090;-77
2022/06/09 12:37:55;;;;;;;6.55;1.45;;;;;;;;;;10428589;28;20414;-76
2022/06/09 12:43:00;;;;;;;3.00;1.02;;;;;;;;;;10413970;28;20049;-78
2022/06/09 12:48:09;;;;;;;1.17;1.08;;;;;;;;;;10432829;28;20397;-78
2022/06/09 12:53:17;;;;;;;3.08;1.13;;;;;;;;;;10430203;28;20037;-77
2022/06/09 12:58:22;;;;;;;3.85;1.73;;;;;;;;;;10413874;28;20497;-77
2022/06/09 13:03:30;;;;;;;2.58;0.80;;;;;;;;;;10432755;28;20481;-78
2022/06/09 13:08:33;;;;;;;2.90;1.25;;;;;;;;;;10426774;28;20409;-76
2022/06/09 13:13:38;;;;;;;5.20;1.20;;;;;;;;;;10414112;28;20662;-75
2022/06/09 13:18:43;;;;;;;1.80;1.05;;;;;;;;;;10407851;28;20060;-77
2022/06/09 13:23:48;;;;;;;1.25;1.05;;;;;;;;;;10402516;28;20080;-77
2022/06/09 13:28:51;;;;;;;2.20;0.90;;;;;;;;;;10407977;28;20032;-79
2022/06/09 13:34:00;;;;;;;3.08;1.23;;;;;;;;;;10425500;28;20037;-78
2022/06/09 13:39:21;;;;;;;2.55;1.00;;;;;;;;;;10406344;28;20128;-77
2022/06/09 13:44:27;;;;;;;2.72;1.13;;;;;;;;;;10428711;28;20061;-78
2022/06/09 13:49:32;;;;;;;0.60;0.50;;;;;;;;;;10434014;28;20037;-78
2022/06/09 13:54:39;;;;;;;2.38;0.75;;;;;;;;;;10422330;28;20048;-78
2022/06/09 13:59:41;;;;;;;1.60;0.95;;;;;;;;;;10429106;28;20532;-78
2022/06/09 14:04:46;;;;;;;4.93;0.90;;;;;;;;;;10427440;28;20053;-79
2022/06/09 14:09:49;;;;;;;1.42;0.80;;;;;;;;;;10416782;28;20098;-77
2022/06/09 14:14:52;;;;;;;0.70;0.70;;;;;;;;;;10426432;28;20036;-79
2022/06/09 14:19:56;;;;;;;0.68;0.65;;;;;;;;;;10413405;28;20386;-77
2022/06/09 14:24:58;;;;;;;0.98;0.47;;;;;;;;;;10404397;28;20081;-77
2022/06/09 14:30:01;;;;;;;1.40;0.50;;;;;;;;;;10419247;28;20264;-78
2022/06/09 14:35:06;;;;;;;0.70;0.70;;;;;;;;;;10421302;28;20040;-77
2022/06/09 14:40:20;;;;;;;1.38;0.80;;;;;;;;;;10421780;28;20036;-76
2022/06/09 14:45:22;;;;;;;2.25;0.98;;;;;;;;;;10424247;28;20053;-77
2022/06/09 14:50:27;;;;;;;1.08;0.93;;;;;;;;;;10400568;28;20081;-78
2022/06/09 14:55:36;;;;;;;2.17;0.65;;;;;;;;;;10435826;28;20037;-78
2022/06/09 15:00:39;;;;;;;2.08;0.70;;;;;;;;;;10417913;28;20041;-78
2022/06/09 15:05:43;;;;;;;1.42;0.70;;;;;;;;;;10422742;28;20037;-77
2022/06/09 15:10:47;;;;;;;1.08;0.65;;;;;;;;;;10419129;28;20057;-76
2022/06/09 15:15:50;;;;;;;1.40;0.90;;;;;;;;;;10406753;28;20075;-78
2022/06/09 15:20:55;;;;;;;0.55;0.55;;;;;;;;;;10419062;28;20041;-77
2022/06/09 15:25:57;;;;;;;1.85;0.98;;;;;;;;;;10414474;28;20065;-77
2022/06/09 15:31:00;;;;;;;3.77;0.93;;;;;;;;;;10408979;28;20064;-77
2022/06/09 15:36:05;;;;;;;2.38;0.88;;;;;;;;;;10422128;28;20420;-78
2022/06/09 15:41:08;;;;;;;1.67;0.80;;;;;;;;;;10411457;28;20049;-78
2022/06/09 15:46:10;;;;;;;1.50;0.90;;;;;;;;;;10417554;28;20136;-78
2022/06/09 15:51:16;;;;;;;1.92;0.68;;;;;;;;;;10434395;28;20102;-79
2022/06/09 15:56:19;;;;;;;2.78;0.80;;;;;;;;;;10430191;28;20048;-77
2022/06/09 16:01:22;;;;;;;2.40;0.70;;;;;;;;;;10441672;28;20127;-79
2022/06/09 16:06:27;;;;;;;1.15;0.90;;;;;;;;;;10417257;28;20044;-78
2022/06/09 16:11:29;;;;;;;2.33;1.10;;;;;;;;;;10418732;28;20608;-78
2022/06/09 16:16:32;;;;;;;0.75;0.60;;;;;;;;;;10440682;28;20445;-77
2022/06/09 16:21:37;;;;;;;2.60;0.98;;;;;;;;;;10432792;28;20073;-76
2022/06/09 16:26:40;;;;;;;0.80;0.60;;;;;;;;;;10429004;28;20041;-77
2022/06/09 16:31:43;;;;;;;2.10;0.95;;;;;;;;;;10446416;28;20037;-79
2022/06/09 16:36:46;;;;;;;;;;;;;;;;;;10435728;28;20088;-78
2022/06/09 16:41:50;;;;;;;4.85;1.20;;;;;;;;;;10420789;28;20023;-77
2022/06/09 16:46:53;;;;;;;1.88;1.00;;;;;;;;;;10413129;28;20068;-78
2022/06/09 16:51:56;;;;;;;3.80;1.20;;;;;;;;;;10427579;28;20041;-78
2022/06/09 16:57:01;;;;;;;1.33;1.10;;;;;;;;;;10424894;28;20310;-78
2022/06/09 17:02:04;;;;;;;2.22;0.95;;;;;;;;;;10447270;28;20476;-78
2022/06/09 17:07:07;;;;;;;1.42;0.63;;;;;;;;;;10432925;28;20482;-78
2022/06/09 17:12:14;;;;;;;2.22;0.98;;;;;;;;;;10411855;28;20033;-78
2022/06/09 17:17:17;;;;;;;2.47;1.10;;;;;;;;;;10437860;28;20033;-77
2022/06/09 17:22:20;;;;;;;1.67;1.15;;;;;;;;;;10436289;28;20091;-78
2022/06/09 17:27:24;;;;;;;1.63;1.00;;;;;;;;;;10427463;28;20094;-77
2022/06/09 17:32:27;;;;;;;1.00;0.88;;;;;;;;;;10418167;28;20112;-79
2022/06/09 17:37:30;;;;;;;0.40;0.40;;;;;;;;;;10414443;28;20469;-77
2022/06/09 17:42:34;;;;;;;3.23;1.10;;;;;;;;;;10445777;28;20128;-75
2022/06/09 17:47:38;;;;;;;4.57;1.13;;;;;;;;;;10434878;28;20120;-75
2022/06/09 17:52:41;;;;;;;2.58;1.20;;;;;;;;;;10437386;28;20045;-78
2022/06/09 17:57:45;;;;;;;3.00;0.90;;;;;;;;;;10428849;28;20065;-76
2022/06/09 18:02:48;;;;;;;3.85;1.20;;;;;;;;;;10430721;28;20509;-77
2022/06/09 18:07:52;;;;;;;2.77;1.93;;;;;;;;;;10427795;28;20038;-78
2022/06/09 18:12:57;;;;;;;1.42;1.10;;;;;;;;;;10420997;28;20299;-78
2022/06/09 18:18:00;;;;;;;1.33;0.90;;;;;;;;;;10413482;28;20497;-78
2022/06/09 18:23:06;;;;;;;1.30;1.02;;;;;;;;;;10435381;28;20211;-77
2022/06/09 18:28:11;;;;;;;0.88;0.88;;;;;;;;;;10436502;28;20060;-78
2022/06/09 18:33:15;;;;;;;2.25;1.00;;;;;;;;;;10438913;28;20060;-77
2022/06/09 18:38:18;;;;;;;1.40;1.10;;;;;;;;;;10416871;28;20128;-76
2022/06/09 18:43:24;;;;;;;0.82;0.80;;;;;;;;;;10434671;28;20033;-76
2022/06/09 18:48:28;;;;;;;2.65;1.35;;;;;;;;;;10452642;28;20046;-76
2022/06/09 18:53:33;;;;;;;2.10;1.10;;;;;;;;;;10415253;28;20048;-76
2022/06/09 18:58:38;;;;;;;4.07;1.02;;;;;;;;;;10431504;28;20048;-73
2022/06/09 19:03:41;;;;;;;3.22;1.50;;;;;;;;;;10428091;28;20053;-75
2022/06/09 19:08:46;;;;;;;6.10;1.33;;;;;;;;;;10446666;28;20411;-75
2022/06/09 19:13:50;;;;;;;3.80;1.60;;;;;;;;;;10442891;28;20140;-75
2022/06/09 19:18:53;;;;;;;2.60;1.05;;;;;;;;;;10449137;28;20045;-76
2022/06/09 19:23:57;;;;;;;3.30;1.23;;;;;;;;;;10420818;28;20037;-76
2022/06/09 19:29:03;;;;;;;3.63;1.05;;;;;;;;;;10425833;28;20118;-75
2022/06/09 19:34:06;;;;;;;2.65;1.00;;;;;;;;;;10413512;28;20047;-76
2022/06/09 19:39:09;;;;;;;4.60;1.57;;;;;;;;;;10420395;28;20041;-77
2022/06/09 19:44:14;;;;;;;4.00;1.63;;;;;;;;;;10445685;28;20075;-75
2022/06/09 19:49:17;;;;;;;2.67;0.82;;;;;;;;;;10419084;28;20498;-76
2022/06/09 19:54:20;;;;;;;3.63;1.53;;;;;;;;;;10409839;28;20397;-77
2022/06/09 19:59:25;;;;;;;3.97;2.10;;;;;;;;;;10433462;28;20051;-76
2022/06/09 20:04:29;;;;;;;2.92;1.30;;;;;;;;;;10431568;28;20065;-76
2022/06/09 20:09:32;;;;;;;2.17;1.50;;;;;;;;;;10439357;28;20067;-77
2022/06/09 20:14:36;;;;;;;5.20;1.55;;;;;;;;;;10432612;28;20128;-76
2022/06/09 20:19:39;;;;;;;1.45;0.95;;;;;;;;;;10411353;28;20128;-76
2022/06/09 20:24:42;;;;;;;0.63;0.60;;;;;;;;;;10410001;28;20033;-76
2022/06/09 20:29:47;;;;;;;6.33;3.20;;;;;;;;;;10427053;28;20536;-75
2022/06/09 20:34:50;;;;;;;3.53;1.88;;;;;;;;;;10409434;28;20048;-76
2022/06/09 20:39:53;;;;;;;3.60;1.80;;;;;;;;;;10436625;28;20116;-76
2022/06/09 20:44:57;;;;;;;2.27;2.00;;;;;;;;;;10457042;28;20040;-76
2022/06/09 20:50:01;;;;;;;5.35;2.08;;;;;;;;;;10449708;28;20135;-77
2022/06/09 20:55:05;;;;;;;2.70;1.63;;;;;;;;;;10444735;28;20262;-77
2022/06/09 21:00:10;;;;;;;6.07;1.73;;;;;;;;;;10429650;28;20137;-77
2022/06/09 21:05:14;;;;;;;4.60;1.98;;;;;;;;;;10433370;28;20037;-75
2022/06/09 21:21:01;;;;;;;2.50;1.85;;;;;;;;;;10433709;28;20044;-76
2022/06/09 21:26:03;;;;;;;2.95;1.38;;;;;;;;;;10451362;28;20037;-78
2022/06/09 21:31:07;;;;;;;6.97;2.83;;;;;;;;;;10455821;28;20385;-78
2022/06/09 21:36:10;;;;;;;4.32;2.05;;;;;;;;;;10435110;28;20164;-78
2022/06/09 21:41:13;;;;;;;2.17;1.20;;;;;;;;;;10444567;28;20036;-78
2022/06/09 21:46:19;;;;;;;4.85;1.90;;;;;;;;;;10452643;28;20056;-78
2022/06/09 21:51:22;;;;;;;8.15;3.45;;;;;;;;;;10453740;28;20044;-77
2022/06/09 21:56:25;;;;;;;1.73;1.50;;;;;;;;;;10431923;28;20064;-78
2022/06/09 22:01:29;;;;;;;5.18;2.17;;;;;;;;;;10436711;28;20065;-76
2022/06/09 22:06:32;;;;;;;2.55;1.75;;;;;;;;;;10452735;28;20037;-78
2022/06/09 22:11:35;;;;;;;8.63;2.20;;;;;;;;;;10438804;28;20045;-78
2022/06/09 22:16:40;;;;;;;3.47;1.77;;;;;;;;;;10449000;28;20106;-76
2022/06/09 22:21:43;;;;;;;3.70;2.13;;;;;;;;;;10461015;28;20036;-77
2022/06/09 22:26:46;;;;;;;1.70;1.27;;;;;;;;;;10445325;28;20465;-77
2022/06/09 22:31:50;;;;;;;5.90;1.80;;;;;;;;;;10454260;28;20384;-75
2022/06/09 22:36:53;;;;;;;4.57;1.48;;;;;;;;;;10455480;28;20460;-76
2022/06/09 22:41:56;;;;;;;2.05;1.23;;;;;;;;;;10454558;28;20118;-77
2022/06/09 22:47:00;;;;;;;2.58;1.77;;;;;;;;;;10448619;28;20068;-75
2022/06/09 22:52:03;;;;;;;3.95;1.83;;;;;;;;;;10456734;28;20067;-79
2022/06/09 22:57:06;;;;;;;4.20;1.90;;;;;;;;;;10433418;28;20033;-77
2022/06/09 23:02:11;;;;;;;3.78;1.70;;;;;;;;;;10442514;28;20037;-78
2022/06/09 23:07:14;;;;;;;2.50;1.90;;;;;;;;;;10446903;28;20025;-77
2022/06/09 23:12:17;;;;;;;0.93;0.68;;;;;;;;;;10442980;28;20148;-77
2022/06/09 23:17:22;;;;;;;4.75;1.90;;;;;;;;;;10427837;28;20064;-75
2022/06/09 23:22:25;;;;;;;1.95;1.42;;;;;;;;;;10455211;28;20380;-77
2022/06/09 23:27:27;;;;;;;2.65;1.48;;;;;;;;;;10429238;28;20524;-76
2022/06/09 23:32:32;;;;;;;5.35;2.15;;;;;;;;;;10434061;28;20748;-76
2022/06/09 23:37:36;;;;;;;1.92;1.38;;;;;;;;;;10432476;28;20047;-74
2022/06/09 23:42:39;;;;;;;2.00;1.17;;;;;;;;;;10432683;28;20128;-76
2022/06/09 23:47:43;;;;;;;2.35;1.85;;;;;;;;;;10456299;28;20385;-75
2022/06/09 23:52:46;;;;;;;3.50;1.75;;;;;;;;;;10454837;28;20554;-76
2022/06/09 23:57:49;;;;;;;1.92;1.42;;;;;;;;;;10439596;28;20048;-76
